sensor_id;sensor_type;location;lat;lon;timestamp;P1;durP1;ratioP1;P2;durP2;ratioP2
23988;SDS011;12202;52.136;5.592;2022-11-12T00:01:24;43.60;;;26.58;;
23988;SDS011;12202;52.136;5.592;2022-11-12T00:03:50;45.65;;;26.88;;
23988;SDS011;12202;52.136;5.592;2022-11-12T00:06:16;43.85;;;25.48;;
23988;SDS011;12202;52.136;5.592;2022-11-12T00:08:42;43.28;;;27.08;;
23988;SDS011;12202;52.136;5.592;2022-11-12T00:11:08;43.13;;;25.90;;
23988;SDS011;12202;52.136;5.592;2022-11-12T00:13:34;47.10;;;27.77;;
23988;SDS011;12202;52.136;5.592;2022-11-12T00:16:00;43.80;;;26.23;;
23988;SDS011;12202;52.136;5.592;2022-11-12T00:18:26;46.97;;;27.38;;
23988;SDS011;12202;52.136;5.592;2022-11-12T00:20:52;46.88;;;25.98;;
23988;SDS011;12202;52.136;5.592;2022-11-12T00:23:18;41.03;;;25.02;;
23988;SDS011;12202;52.136;5.592;2022-11-12T00:25:44;44.70;;;25.00;;
23988;SDS011;12202;52.136;5.592;2022-11-12T00:28:10;44.85;;;26.08;;
23988;SDS011;12202;52.136;5.592;2022-11-12T00:30:37;39.70;;;24.92;;
23988;SDS011;12202;52.136;5.592;2022-11-12T00:33:04;47.00;;;27.33;;
23988;SDS011;12202;52.136;5.592;2022-11-12T00:35:30;54.78;;;26.77;;
23988;SDS011;12202;52.136;5.592;2022-11-12T00:37:57;44.13;;;25.05;;
23988;SDS011;12202;52.136;5.592;2022-11-12T00:40:24;47.05;;;27.33;;
23988;SDS011;12202;52.136;5.592;2022-11-12T00:42:50;48.90;;;28.27;;
23988;SDS011;12202;52.136;5.592;2022-11-12T00:45:17;44.83;;;27.08;;
23988;SDS011;12202;52.136;5.592;2022-11-12T00:47:43;45.70;;;26.85;;
23988;SDS011;12202;52.136;5.592;2022-11-12T00:50:09;39.58;;;25.65;;
23988;SDS011;12202;52.136;5.592;2022-11-12T00:52:35;42.70;;;27.20;;
23988;SDS011;12202;52.136;5.592;2022-11-12T00:55:01;43.33;;;27.45;;
23988;SDS011;12202;52.136;5.592;2022-11-12T00:57:27;43.17;;;28.13;;
23988;SDS011;12202;52.136;5.592;2022-11-12T00:59:53;62.13;;;32.90;;
23988;SDS011;12202;52.136;5.592;2022-11-12T01:02:19;48.05;;;28.60;;
23988;SDS011;12202;52.136;5.592;2022-11-12T01:04:46;51.80;;;31.60;;
23988;SDS011;12202;52.136;5.592;2022-11-12T01:07:12;51.95;;;30.63;;
23988;SDS011;12202;52.136;5.592;2022-11-12T01:09:40;50.38;;;29.45;;
23988;SDS011;12202;52.136;5.592;2022-11-12T01:12:06;48.30;;;28.70;;
23988;SDS011;12202;52.136;5.592;2022-11-12T01:14:32;54.90;;;30.00;;
23988;SDS011;12202;52.136;5.592;2022-11-12T01:16:58;55.75;;;30.20;;
23988;SDS011;12202;52.136;5.592;2022-11-12T01:19:24;58.75;;;31.73;;
23988;SDS011;12202;52.136;5.592;2022-11-12T01:21:49;49.72;;;28.45;;
23988;SDS011;12202;52.136;5.592;2022-11-12T01:24:15;46.85;;;27.15;;
23988;SDS011;12202;52.136;5.592;2022-11-12T01:26:41;50.65;;;30.52;;
23988;SDS011;12202;52.136;5.592;2022-11-12T01:29:07;53.03;;;32.08;;
23988;SDS011;12202;52.136;5.592;2022-11-12T01:31:34;57.85;;;33.70;;
23988;SDS011;12202;52.136;5.592;2022-11-12T01:34:02;54.10;;;32.65;;
23988;SDS011;12202;52.136;5.592;2022-11-12T01:36:30;63.92;;;34.92;;
23988;SDS011;12202;52.136;5.592;2022-11-12T01:38:57;53.50;;;34.08;;
23988;SDS011;12202;52.136;5.592;2022-11-12T01:41:24;56.78;;;36.40;;
23988;SDS011;12202;52.136;5.592;2022-11-12T01:49:25;60.60;;;35.17;;
23988;SDS011;12202;52.136;5.592;2022-11-12T01:51:52;60.22;;;36.00;;
23988;SDS011;12202;52.136;5.592;2022-11-12T01:54:19;63.45;;;35.97;;
23988;SDS011;12202;52.136;5.592;2022-11-12T01:56:46;57.17;;;34.97;;
23988;SDS011;12202;52.136;5.592;2022-11-12T01:59:14;62.15;;;36.42;;
23988;SDS011;12202;52.136;5.592;2022-11-12T02:01:41;70.78;;;36.90;;
23988;SDS011;12202;52.136;5.592;2022-11-12T02:04:07;56.38;;;33.83;;
23988;SDS011;12202;52.136;5.592;2022-11-12T02:06:33;63.25;;;36.22;;
23988;SDS011;12202;52.136;5.592;2022-11-12T02:09:01;58.85;;;35.17;;
23988;SDS011;12202;52.136;5.592;2022-11-12T02:11:27;56.42;;;35.20;;
23988;SDS011;12202;52.136;5.592;2022-11-12T02:13:53;60.50;;;36.97;;
23988;SDS011;12202;52.136;5.592;2022-11-12T02:16:32;60.53;;;35.85;;
23988;SDS011;12202;52.136;5.592;2022-11-12T02:18:59;56.80;;;34.35;;
23988;SDS011;12202;52.136;5.592;2022-11-12T02:21:26;64.75;;;36.67;;
23988;SDS011;12202;52.136;5.592;2022-11-12T02:23:59;57.22;;;34.63;;
23988;SDS011;12202;52.136;5.592;2022-11-12T02:26:25;62.42;;;36.05;;
23988;SDS011;12202;52.136;5.592;2022-11-12T02:28:54;64.35;;;36.17;;
23988;SDS011;12202;52.136;5.592;2022-11-12T02:31:20;57.20;;;36.03;;
23988;SDS011;12202;52.136;5.592;2022-11-12T02:33:45;67.55;;;36.17;;
23988;SDS011;12202;52.136;5.592;2022-11-12T02:36:11;55.38;;;33.65;;
23988;SDS011;12202;52.136;5.592;2022-11-12T02:38:37;57.35;;;33.47;;
23988;SDS011;12202;52.136;5.592;2022-11-12T02:41:03;60.15;;;34.75;;
23988;SDS011;12202;52.136;5.592;2022-11-12T02:43:29;60.85;;;33.90;;
23988;SDS011;12202;52.136;5.592;2022-11-12T02:45:55;58.30;;;34.00;;
23988;SDS011;12202;52.136;5.592;2022-11-12T02:48:21;58.65;;;34.22;;
23988;SDS011;12202;52.136;5.592;2022-11-12T02:50:47;56.30;;;33.65;;
23988;SDS011;12202;52.136;5.592;2022-11-12T02:53:13;61.75;;;34.15;;
23988;SDS011;12202;52.136;5.592;2022-11-12T02:55:39;57.25;;;33.85;;
23988;SDS011;12202;52.136;5.592;2022-11-12T02:58:07;59.47;;;34.00;;
23988;SDS011;12202;52.136;5.592;2022-11-12T03:00:33;58.63;;;33.08;;
23988;SDS011;12202;52.136;5.592;2022-11-12T03:02:59;57.80;;;32.92;;
23988;SDS011;12202;52.136;5.592;2022-11-12T03:05:25;62.50;;;34.08;;
23988;SDS011;12202;52.136;5.592;2022-11-12T03:07:55;58.28;;;34.88;;
23988;SDS011;12202;52.136;5.592;2022-11-12T03:10:22;54.83;;;32.55;;
23988;SDS011;12202;52.136;5.592;2022-11-12T03:12:48;67.10;;;35.92;;
23988;SDS011;12202;52.136;5.592;2022-11-12T03:15:14;56.15;;;33.15;;
23988;SDS011;12202;52.136;5.592;2022-11-12T03:17:41;63.80;;;38.00;;
23988;SDS011;12202;52.136;5.592;2022-11-12T03:20:08;62.75;;;37.47;;
23988;SDS011;12202;52.136;5.592;2022-11-12T03:22:34;64.45;;;38.05;;
23988;SDS011;12202;52.136;5.592;2022-11-12T03:25:00;63.85;;;37.58;;
23988;SDS011;12202;52.136;5.592;2022-11-12T03:27:26;62.88;;;36.15;;
23988;SDS011;12202;52.136;5.592;2022-11-12T03:29:52;61.67;;;37.47;;
23988;SDS011;12202;52.136;5.592;2022-11-12T03:32:18;64.18;;;37.15;;
23988;SDS011;12202;52.136;5.592;2022-11-12T03:34:43;66.82;;;38.60;;
23988;SDS011;12202;52.136;5.592;2022-11-12T03:37:09;73.47;;;40.47;;
23988;SDS011;12202;52.136;5.592;2022-11-12T03:39:35;62.38;;;36.00;;
23988;SDS011;12202;52.136;5.592;2022-11-12T03:42:02;63.88;;;37.40;;
23988;SDS011;12202;52.136;5.592;2022-11-12T03:44:28;63.15;;;37.17;;
23988;SDS011;12202;52.136;5.592;2022-11-12T03:46:54;65.60;;;38.25;;
23988;SDS011;12202;52.136;5.592;2022-11-12T03:49:20;66.05;;;37.35;;
23988;SDS011;12202;52.136;5.592;2022-11-12T03:51:46;65.68;;;40.05;;
23988;SDS011;12202;52.136;5.592;2022-11-12T03:54:12;63.08;;;37.55;;
23988;SDS011;12202;52.136;5.592;2022-11-12T03:56:38;65.10;;;38.60;;
23988;SDS011;12202;52.136;5.592;2022-11-12T03:59:04;59.55;;;37.30;;
23988;SDS011;12202;52.136;5.592;2022-11-12T04:01:30;68.28;;;38.97;;
23988;SDS011;12202;52.136;5.592;2022-11-12T04:03:56;75.60;;;39.80;;
23988;SDS011;12202;52.136;5.592;2022-11-12T04:06:22;72.65;;;39.85;;
23988;SDS011;12202;52.136;5.592;2022-11-12T04:09:07;65.00;;;38.00;;
23988;SDS011;12202;52.136;5.592;2022-11-12T04:11:33;67.97;;;38.53;;
23988;SDS011;12202;52.136;5.592;2022-11-12T04:13:59;63.00;;;36.92;;
23988;SDS011;12202;52.136;5.592;2022-11-12T04:16:25;68.82;;;39.05;;
23988;SDS011;12202;52.136;5.592;2022-11-12T04:19:10;63.88;;;37.78;;
23988;SDS011;12202;52.136;5.592;2022-11-12T04:21:58;65.03;;;37.15;;
23988;SDS011;12202;52.136;5.592;2022-11-12T04:24:25;60.38;;;36.58;;
23988;SDS011;12202;52.136;5.592;2022-11-12T04:29:46;65.75;;;38.03;;
23988;SDS011;12202;52.136;5.592;2022-11-12T04:32:32;64.50;;;36.75;;
23988;SDS011;12202;52.136;5.592;2022-11-12T04:34:58;65.95;;;37.88;;
23988;SDS011;12202;52.136;5.592;2022-11-12T04:37:25;67.50;;;37.35;;
23988;SDS011;12202;52.136;5.592;2022-11-12T04:39:51;60.63;;;36.63;;
23988;SDS011;12202;52.136;5.592;2022-11-12T04:42:17;60.92;;;35.83;;
23988;SDS011;12202;52.136;5.592;2022-11-12T04:45:03;57.30;;;34.80;;
23988;SDS011;12202;52.136;5.592;2022-11-12T04:47:34;54.25;;;35.28;;
23988;SDS011;12202;52.136;5.592;2022-11-12T04:50:01;57.15;;;35.00;;
23988;SDS011;12202;52.136;5.592;2022-11-12T04:52:28;64.32;;;36.72;;
23988;SDS011;12202;52.136;5.592;2022-11-12T04:54:54;63.53;;;35.00;;
23988;SDS011;12202;52.136;5.592;2022-11-12T04:57:20;69.68;;;39.97;;
23988;SDS011;12202;52.136;5.592;2022-11-12T04:59:46;63.97;;;38.42;;
23988;SDS011;12202;52.136;5.592;2022-11-12T05:02:13;61.25;;;37.17;;
23988;SDS011;12202;52.136;5.592;2022-11-12T05:04:39;70.68;;;38.28;;
23988;SDS011;12202;52.136;5.592;2022-11-12T05:07:05;60.90;;;37.38;;
23988;SDS011;12202;52.136;5.592;2022-11-12T05:09:31;71.03;;;37.08;;
23988;SDS011;12202;52.136;5.592;2022-11-12T05:11:57;60.75;;;36.78;;
23988;SDS011;12202;52.136;5.592;2022-11-12T05:14:24;56.70;;;36.05;;
23988;SDS011;12202;52.136;5.592;2022-11-12T05:16:50;66.18;;;36.15;;
23988;SDS011;12202;52.136;5.592;2022-11-12T05:19:16;60.83;;;36.97;;
23988;SDS011;12202;52.136;5.592;2022-11-12T05:21:42;62.33;;;34.58;;
23988;SDS011;12202;52.136;5.592;2022-11-12T05:24:27;70.53;;;37.00;;
23988;SDS011;12202;52.136;5.592;2022-11-12T05:26:53;61.72;;;33.15;;
23988;SDS011;12202;52.136;5.592;2022-11-12T05:29:19;53.08;;;33.47;;
23988;SDS011;12202;52.136;5.592;2022-11-12T05:31:46;61.80;;;35.53;;
23988;SDS011;12202;52.136;5.592;2022-11-12T05:34:12;59.33;;;34.42;;
23988;SDS011;12202;52.136;5.592;2022-11-12T05:36:38;64.80;;;37.53;;
23988;SDS011;12202;52.136;5.592;2022-11-12T05:39:04;74.50;;;39.95;;
23988;SDS011;12202;52.136;5.592;2022-11-12T05:41:30;68.18;;;36.78;;
23988;SDS011;12202;52.136;5.592;2022-11-12T05:43:56;59.22;;;35.53;;
23988;SDS011;12202;52.136;5.592;2022-11-12T05:46:22;69.57;;;36.63;;
23988;SDS011;12202;52.136;5.592;2022-11-12T05:48:48;62.38;;;36.55;;
23988;SDS011;12202;52.136;5.592;2022-11-12T05:51:14;64.13;;;35.17;;
23988;SDS011;12202;52.136;5.592;2022-11-12T05:53:40;60.38;;;33.90;;
23988;SDS011;12202;52.136;5.592;2022-11-12T05:56:07;57.53;;;31.75;;
23988;SDS011;12202;52.136;5.592;2022-11-12T05:58:34;53.67;;;32.13;;
23988;SDS011;12202;52.136;5.592;2022-11-12T06:01:01;59.75;;;33.67;;
23988;SDS011;12202;52.136;5.592;2022-11-12T06:03:27;58.72;;;33.17;;
23988;SDS011;12202;52.136;5.592;2022-11-12T06:05:53;63.47;;;35.60;;
23988;SDS011;12202;52.136;5.592;2022-11-12T06:08:19;59.08;;;34.88;;
23988;SDS011;12202;52.136;5.592;2022-11-12T06:10:49;56.03;;;32.92;;
23988;SDS011;12202;52.136;5.592;2022-11-12T06:13:15;57.13;;;33.97;;
23988;SDS011;12202;52.136;5.592;2022-11-12T06:15:41;56.50;;;32.50;;
23988;SDS011;12202;52.136;5.592;2022-11-12T06:18:07;57.72;;;32.42;;
23988;SDS011;12202;52.136;5.592;2022-11-12T06:20:33;52.50;;;32.65;;
23988;SDS011;12202;52.136;5.592;2022-11-12T06:22:59;63.97;;;33.22;;
23988;SDS011;12202;52.136;5.592;2022-11-12T06:25:25;66.45;;;32.33;;
23988;SDS011;12202;52.136;5.592;2022-11-12T06:27:51;56.25;;;32.47;;
23988;SDS011;12202;52.136;5.592;2022-11-12T06:30:17;57.67;;;34.35;;
23988;SDS011;12202;52.136;5.592;2022-11-12T06:32:49;57.70;;;32.92;;
23988;SDS011;12202;52.136;5.592;2022-11-12T06:35:16;60.67;;;30.58;;
23988;SDS011;12202;52.136;5.592;2022-11-12T06:37:44;51.50;;;30.48;;
23988;SDS011;12202;52.136;5.592;2022-11-12T06:40:11;63.92;;;30.92;;
23988;SDS011;12202;52.136;5.592;2022-11-12T06:42:37;53.92;;;30.35;;
23988;SDS011;12202;52.136;5.592;2022-11-12T06:45:03;47.97;;;28.70;;
23988;SDS011;12202;52.136;5.592;2022-11-12T06:47:29;55.75;;;30.35;;
23988;SDS011;12202;52.136;5.592;2022-11-12T06:49:55;53.58;;;30.98;;
23988;SDS011;12202;52.136;5.592;2022-11-12T06:52:21;51.22;;;29.80;;
23988;SDS011;12202;52.136;5.592;2022-11-12T06:54:47;58.10;;;30.35;;
23988;SDS011;12202;52.136;5.592;2022-11-12T06:57:13;54.20;;;29.88;;
23988;SDS011;12202;52.136;5.592;2022-11-12T06:59:39;54.08;;;30.70;;
23988;SDS011;12202;52.136;5.592;2022-11-12T07:02:05;50.72;;;31.20;;
23988;SDS011;12202;52.136;5.592;2022-11-12T07:04:31;48.50;;;29.08;;
23988;SDS011;12202;52.136;5.592;2022-11-12T07:06:57;49.55;;;28.67;;
23988;SDS011;12202;52.136;5.592;2022-11-12T07:09:23;49.80;;;29.02;;
23988;SDS011;12202;52.136;5.592;2022-11-12T07:11:49;45.97;;;28.17;;
23988;SDS011;12202;52.136;5.592;2022-11-12T07:14:15;53.70;;;28.58;;
23988;SDS011;12202;52.136;5.592;2022-11-12T07:16:41;57.85;;;30.40;;
23988;SDS011;12202;52.136;5.592;2022-11-12T07:19:07;44.50;;;27.33;;
23988;SDS011;12202;52.136;5.592;2022-11-12T07:21:33;49.38;;;28.65;;
23988;SDS011;12202;52.136;5.592;2022-11-12T07:23:59;45.38;;;25.65;;
23988;SDS011;12202;52.136;5.592;2022-11-12T07:26:25;49.22;;;26.63;;
23988;SDS011;12202;52.136;5.592;2022-11-12T07:28:52;45.28;;;26.85;;
23988;SDS011;12202;52.136;5.592;2022-11-12T07:31:20;53.88;;;29.17;;
23988;SDS011;12202;52.136;5.592;2022-11-12T07:33:46;57.05;;;31.63;;
23988;SDS011;12202;52.136;5.592;2022-11-12T07:36:14;50.33;;;30.27;;
23988;SDS011;12202;52.136;5.592;2022-11-12T07:38:40;54.45;;;32.00;;
23988;SDS011;12202;52.136;5.592;2022-11-12T07:41:10;53.53;;;31.23;;
23988;SDS011;12202;52.136;5.592;2022-11-12T07:43:37;54.20;;;30.98;;
23988;SDS011;12202;52.136;5.592;2022-11-12T07:46:10;64.18;;;33.08;;
23988;SDS011;12202;52.136;5.592;2022-11-12T07:48:36;53.83;;;32.28;;
23988;SDS011;12202;52.136;5.592;2022-11-12T07:51:22;53.55;;;31.65;;
23988;SDS011;12202;52.136;5.592;2022-11-12T07:53:48;52.00;;;31.02;;
23988;SDS011;12202;52.136;5.592;2022-11-12T07:56:15;55.28;;;31.23;;
23988;SDS011;12202;52.136;5.592;2022-11-12T07:58:42;51.92;;;28.85;;
23988;SDS011;12202;52.136;5.592;2022-11-12T08:01:09;55.35;;;28.52;;
23988;SDS011;12202;52.136;5.592;2022-11-12T08:03:35;47.78;;;28.67;;
23988;SDS011;12202;52.136;5.592;2022-11-12T08:06:01;56.88;;;29.20;;
23988;SDS011;12202;52.136;5.592;2022-11-12T08:08:27;49.30;;;27.60;;
23988;SDS011;12202;52.136;5.592;2022-11-12T08:10:57;48.47;;;26.95;;
23988;SDS011;12202;52.136;5.592;2022-11-12T08:13:23;45.92;;;25.73;;
23988;SDS011;12202;52.136;5.592;2022-11-12T08:15:49;43.30;;;24.92;;
23988;SDS011;12202;52.136;5.592;2022-11-12T08:18:16;42.50;;;25.52;;
23988;SDS011;12202;52.136;5.592;2022-11-12T08:20:42;42.95;;;24.35;;
23988;SDS011;12202;52.136;5.592;2022-11-12T08:23:08;62.47;;;26.58;;
23988;SDS011;12202;52.136;5.592;2022-11-12T08:25:34;44.15;;;26.17;;
23988;SDS011;12202;52.136;5.592;2022-11-12T08:28:01;40.20;;;23.15;;
23988;SDS011;12202;52.136;5.592;2022-11-12T08:30:27;46.13;;;24.90;;
23988;SDS011;12202;52.136;5.592;2022-11-12T08:32:57;44.28;;;25.85;;
23988;SDS011;12202;52.136;5.592;2022-11-12T08:35:24;43.13;;;25.77;;
23988;SDS011;12202;52.136;5.592;2022-11-12T08:37:50;51.13;;;26.33;;
23988;SDS011;12202;52.136;5.592;2022-11-12T08:40:17;48.20;;;25.13;;
23988;SDS011;12202;52.136;5.592;2022-11-12T08:42:42;47.78;;;25.58;;
23988;SDS011;12202;52.136;5.592;2022-11-12T08:45:09;49.28;;;26.15;;
23988;SDS011;12202;52.136;5.592;2022-11-12T08:47:35;41.47;;;24.30;;
23988;SDS011;12202;52.136;5.592;2022-11-12T08:50:01;43.15;;;24.40;;
23988;SDS011;12202;52.136;5.592;2022-11-12T08:52:27;45.10;;;22.92;;
23988;SDS011;12202;52.136;5.592;2022-11-12T08:54:53;46.03;;;24.20;;
23988;SDS011;12202;52.136;5.592;2022-11-12T08:57:19;42.10;;;23.55;;
23988;SDS011;12202;52.136;5.592;2022-11-12T08:59:45;42.85;;;23.35;;
23988;SDS011;12202;52.136;5.592;2022-11-12T09:02:11;37.60;;;21.60;;
23988;SDS011;12202;52.136;5.592;2022-11-12T09:04:38;39.97;;;21.08;;
23988;SDS011;12202;52.136;5.592;2022-11-12T09:07:04;36.80;;;20.30;;
23988;SDS011;12202;52.136;5.592;2022-11-12T09:09:29;35.13;;;20.20;;
23988;SDS011;12202;52.136;5.592;2022-11-12T09:11:55;39.63;;;21.38;;
23988;SDS011;12202;52.136;5.592;2022-11-12T09:14:21;39.20;;;20.10;;
23988;SDS011;12202;52.136;5.592;2022-11-12T09:16:47;35.15;;;18.65;;
23988;SDS011;12202;52.136;5.592;2022-11-12T09:19:16;28.17;;;18.98;;
23988;SDS011;12202;52.136;5.592;2022-11-12T09:21:42;29.20;;;19.73;;
23988;SDS011;12202;52.136;5.592;2022-11-12T09:24:08;31.73;;;19.98;;
23988;SDS011;12202;52.136;5.592;2022-11-12T09:26:34;32.63;;;18.55;;
23988;SDS011;12202;52.136;5.592;2022-11-12T09:29:00;29.50;;;17.48;;
23988;SDS011;12202;52.136;5.592;2022-11-12T09:31:26;28.90;;;16.83;;
23988;SDS011;12202;52.136;5.592;2022-11-12T09:33:52;33.45;;;18.13;;
23988;SDS011;12202;52.136;5.592;2022-11-12T09:36:18;31.75;;;18.35;;
23988;SDS011;12202;52.136;5.592;2022-11-12T09:38:43;29.25;;;17.10;;
23988;SDS011;12202;52.136;5.592;2022-11-12T09:41:21;21.98;;;15.65;;
23988;SDS011;12202;52.136;5.592;2022-11-12T09:43:52;25.40;;;15.27;;
23988;SDS011;12202;52.136;5.592;2022-11-12T09:48:52;26.77;;;15.15;;
23988;SDS011;12202;52.136;5.592;2022-11-12T09:51:25;28.80;;;15.43;;
23988;SDS011;12202;52.136;5.592;2022-11-12T09:53:53;23.55;;;15.70;;
23988;SDS011;12202;52.136;5.592;2022-11-12T09:56:20;39.13;;;18.08;;
23988;SDS011;12202;52.136;5.592;2022-11-12T09:58:46;21.70;;;14.98;;
23988;SDS011;12202;52.136;5.592;2022-11-12T10:01:14;22.13;;;15.10;;
23988;SDS011;12202;52.136;5.592;2022-11-12T10:06:30;23.52;;;15.00;;
23988;SDS011;12202;52.136;5.592;2022-11-12T10:09:07;21.45;;;14.70;;
23988;SDS011;12202;52.136;5.592;2022-11-12T10:11:36;23.30;;;13.77;;
23988;SDS011;12202;52.136;5.592;2022-11-12T10:16:56;23.75;;;13.60;;
23988;SDS011;12202;52.136;5.592;2022-11-12T10:19:39;21.42;;;12.90;;
23988;SDS011;12202;52.136;5.592;2022-11-12T10:22:25;22.20;;;11.95;;
23988;SDS011;12202;52.136;5.592;2022-11-12T10:24:52;42.83;;;14.95;;
23988;SDS011;12202;52.136;5.592;2022-11-12T10:27:23;31.90;;;13.63;;
23988;SDS011;12202;52.136;5.592;2022-11-12T10:30:00;17.52;;;11.88;;
23988;SDS011;12202;52.136;5.592;2022-11-12T10:32:27;21.08;;;12.63;;
23988;SDS011;12202;52.136;5.592;2022-11-12T10:35:00;17.35;;;11.60;;
23988;SDS011;12202;52.136;5.592;2022-11-12T10:37:28;21.67;;;12.38;;
23988;SDS011;12202;52.136;5.592;2022-11-12T10:39:57;18.08;;;11.35;;
23988;SDS011;12202;52.136;5.592;2022-11-12T10:42:23;28.50;;;12.23;;
23988;SDS011;12202;52.136;5.592;2022-11-12T10:44:49;20.13;;;10.68;;
23988;SDS011;12202;52.136;5.592;2022-11-12T10:50:05;25.45;;;12.27;;
23988;SDS011;12202;52.136;5.592;2022-11-12T10:52:35;27.65;;;13.77;;
23988;SDS011;12202;52.136;5.592;2022-11-12T10:57:40;19.20;;;11.60;;
23988;SDS011;12202;52.136;5.592;2022-11-12T11:00:15;19.08;;;12.27;;
23988;SDS011;12202;52.136;5.592;2022-11-12T11:02:45;16.33;;;10.52;;
23988;SDS011;12202;52.136;5.592;2022-11-12T11:05:24;17.27;;;10.38;;
23988;SDS011;12202;52.136;5.592;2022-11-12T11:07:52;14.25;;;10.13;;
23988;SDS011;12202;52.136;5.592;2022-11-12T11:10:29;18.27;;;12.20;;
23988;SDS011;12202;52.136;5.592;2022-11-12T11:15:40;21.63;;;12.05;;
23988;SDS011;12202;52.136;5.592;2022-11-12T11:18:07;14.85;;;11.02;;
23988;SDS011;12202;52.136;5.592;2022-11-12T11:20:38;15.07;;;10.98;;
23988;SDS011;12202;52.136;5.592;2022-11-12T11:25:42;15.25;;;10.55;;
23988;SDS011;12202;52.136;5.592;2022-11-12T11:30:37;46.22;;;13.50;;
23988;SDS011;12202;52.136;5.592;2022-11-12T11:33:22;51.13;;;14.30;;
23988;SDS011;12202;52.136;5.592;2022-11-12T11:35:51;39.38;;;13.60;;
23988;SDS011;12202;52.136;5.592;2022-11-12T11:38:36;38.30;;;13.65;;
23988;SDS011;12202;52.136;5.592;2022-11-12T11:56:25;26.65;;;10.57;;
23988;SDS011;12202;52.136;5.592;2022-11-12T12:11:58;17.23;;;12.20;;
23988;SDS011;12202;52.136;5.592;2022-11-12T12:14:32;17.27;;;12.85;;
23988;SDS011;12202;52.136;5.592;2022-11-12T12:19:43;105.15;;;21.23;;
23988;SDS011;12202;52.136;5.592;2022-11-12T12:22:13;101.18;;;20.45;;
23988;SDS011;12202;52.136;5.592;2022-11-12T12:29:39;23.20;;;12.30;;
23988;SDS011;12202;52.136;5.592;2022-11-12T12:32:13;17.02;;;11.70;;
23988;SDS011;12202;52.136;5.592;2022-11-12T12:34:41;17.40;;;11.43;;
23988;SDS011;12202;52.136;5.592;2022-11-12T12:37:26;19.95;;;12.60;;
23988;SDS011;12202;52.136;5.592;2022-11-12T12:39:58;22.23;;;12.15;;
23988;SDS011;12202;52.136;5.592;2022-11-12T12:43:16;19.65;;;11.23;;
23988;SDS011;12202;52.136;5.592;2022-11-12T12:47:59;19.65;;;11.20;;
23988;SDS011;12202;52.136;5.592;2022-11-12T12:50:26;18.05;;;11.68;;
23988;SDS011;12202;52.136;5.592;2022-11-12T12:55:40;24.13;;;12.43;;
23988;SDS011;12202;52.136;5.592;2022-11-12T12:58:22;21.48;;;11.85;;
23988;SDS011;12202;52.136;5.592;2022-11-12T13:00:56;21.23;;;13.82;;
23988;SDS011;12202;52.136;5.592;2022-11-12T13:06:12;20.20;;;13.35;;
23988;SDS011;12202;52.136;5.592;2022-11-12T13:08:39;21.45;;;14.18;;
23988;SDS011;12202;52.136;5.592;2022-11-12T13:11:05;21.42;;;13.95;;
23988;SDS011;12202;52.136;5.592;2022-11-12T13:13:35;23.10;;;12.40;;
23988;SDS011;12202;52.136;5.592;2022-11-12T13:16:01;16.17;;;10.88;;
23988;SDS011;12202;52.136;5.592;2022-11-12T13:21:16;21.00;;;12.73;;
23988;SDS011;12202;52.136;5.592;2022-11-12T13:23:46;20.35;;;13.48;;
23988;SDS011;12202;52.136;5.592;2022-11-12T13:26:48;18.13;;;13.55;;
23988;SDS011;12202;52.136;5.592;2022-11-12T13:31:43;21.08;;;12.57;;
23988;SDS011;12202;52.136;5.592;2022-11-12T13:34:16;15.10;;;11.23;;
23988;SDS011;12202;52.136;5.592;2022-11-12T13:36:53;17.30;;;10.50;;
23988;SDS011;12202;52.136;5.592;2022-11-12T13:39:20;14.10;;;10.40;;
23988;SDS011;12202;52.136;5.592;2022-11-12T13:41:54;17.70;;;12.05;;
23988;SDS011;12202;52.136;5.592;2022-11-12T13:44:39;18.70;;;12.25;;
23988;SDS011;12202;52.136;5.592;2022-11-12T13:47:05;17.00;;;10.80;;
23988;SDS011;12202;52.136;5.592;2022-11-12T13:49:31;18.77;;;10.77;;
23988;SDS011;12202;52.136;5.592;2022-11-12T13:51:57;19.08;;;11.10;;
23988;SDS011;12202;52.136;5.592;2022-11-12T13:54:29;15.48;;;10.32;;
23988;SDS011;12202;52.136;5.592;2022-11-12T13:56:55;13.45;;;10.05;;
23988;SDS011;12202;52.136;5.592;2022-11-12T13:59:37;14.18;;;9.02;;
23988;SDS011;12202;52.136;5.592;2022-11-12T14:02:03;16.77;;;9.00;;
23988;SDS011;12202;52.136;5.592;2022-11-12T14:04:30;15.30;;;8.65;;
23988;SDS011;12202;52.136;5.592;2022-11-12T14:07:42;18.25;;;9.70;;
23988;SDS011;12202;52.136;5.592;2022-11-12T14:10:01;13.27;;;9.43;;
23988;SDS011;12202;52.136;5.592;2022-11-12T14:15:03;18.00;;;10.27;;
23988;SDS011;12202;52.136;5.592;2022-11-12T14:22:37;16.55;;;9.55;;
23988;SDS011;12202;52.136;5.592;2022-11-12T14:25:09;14.23;;;9.68;;
23988;SDS011;12202;52.136;5.592;2022-11-12T14:27:38;14.82;;;9.38;;
23988;SDS011;12202;52.136;5.592;2022-11-12T14:30:09;17.65;;;10.35;;
23988;SDS011;12202;52.136;5.592;2022-11-12T14:32:36;18.27;;;11.63;;
23988;SDS011;12202;52.136;5.592;2022-11-12T14:37:50;20.38;;;13.85;;
23988;SDS011;12202;52.136;5.592;2022-11-12T14:40:17;20.65;;;12.25;;
23988;SDS011;12202;52.136;5.592;2022-11-12T14:42:43;14.60;;;10.82;;
23988;SDS011;12202;52.136;5.592;2022-11-12T14:45:19;12.02;;;8.73;;
23988;SDS011;12202;52.136;5.592;2022-11-12T14:47:45;14.57;;;8.32;;
23988;SDS011;12202;52.136;5.592;2022-11-12T14:50:14;11.75;;;8.05;;
23988;SDS011;12202;52.136;5.592;2022-11-12T14:52:42;14.98;;;8.32;;
23988;SDS011;12202;52.136;5.592;2022-11-12T14:55:10;13.43;;;8.63;;
23988;SDS011;12202;52.136;5.592;2022-11-12T14:57:38;13.40;;;8.07;;
23988;SDS011;12202;52.136;5.592;2022-11-12T15:00:21;18.25;;;8.70;;
23988;SDS011;12202;52.136;5.592;2022-11-12T15:03:00;14.52;;;9.35;;
23988;SDS011;12202;52.136;5.592;2022-11-12T15:05:26;16.73;;;10.43;;
23988;SDS011;12202;52.136;5.592;2022-11-12T15:07:56;15.90;;;11.00;;
23988;SDS011;12202;52.136;5.592;2022-11-12T15:15:30;12.15;;;7.97;;
23988;SDS011;12202;52.136;5.592;2022-11-12T15:17:58;21.33;;;9.30;;
23988;SDS011;12202;52.136;5.592;2022-11-12T15:20:24;14.05;;;8.90;;
23988;SDS011;12202;52.136;5.592;2022-11-12T15:22:51;16.27;;;9.70;;
23988;SDS011;12202;52.136;5.592;2022-11-12T15:27:46;14.82;;;9.25;;
23988;SDS011;12202;52.136;5.592;2022-11-12T15:30:19;16.27;;;9.57;;
23988;SDS011;12202;52.136;5.592;2022-11-12T15:32:49;13.13;;;8.80;;
23988;SDS011;12202;52.136;5.592;2022-11-12T15:37:51;15.85;;;8.02;;
23988;SDS011;12202;52.136;5.592;2022-11-12T15:40:19;16.40;;;7.68;;
23988;SDS011;12202;52.136;5.592;2022-11-12T15:42:45;10.20;;;7.45;;
23988;SDS011;12202;52.136;5.592;2022-11-12T15:45:12;12.95;;;8.10;;
23988;SDS011;12202;52.136;5.592;2022-11-12T15:47:39;16.27;;;8.10;;
23988;SDS011;12202;52.136;5.592;2022-11-12T15:50:10;13.30;;;8.30;;
23988;SDS011;12202;52.136;5.592;2022-11-12T15:52:39;16.83;;;9.35;;
23988;SDS011;12202;52.136;5.592;2022-11-12T15:55:05;13.25;;;8.68;;
23988;SDS011;12202;52.136;5.592;2022-11-12T15:57:33;14.35;;;10.23;;
23988;SDS011;12202;52.136;5.592;2022-11-12T16:00:00;14.35;;;9.52;;
23988;SDS011;12202;52.136;5.592;2022-11-12T16:02:27;23.52;;;11.93;;
23988;SDS011;12202;52.136;5.592;2022-11-12T16:04:54;19.58;;;11.30;;
23988;SDS011;12202;52.136;5.592;2022-11-12T16:07:19;19.52;;;12.15;;
23988;SDS011;12202;52.136;5.592;2022-11-12T16:09:45;18.33;;;12.30;;